Time;durP1;ratioP1;P1;durP2;ratioP2;P2;SDS_P1;SDS_P2;PMS_P1;PMS_P2;Temp;Humidity;BMP_temperature;BMP_pressure;BME280_temperature;BME280_humidity;BME280_pressure;Samples;Min_cycle;Max_cycle;Signal;HPM_P1;HPM_P2
2021/06/23 00:01:28;;;;;;;7.78;3.17;;;22.70;54.10;;;;;;20912185;28;20502;-19
2021/06/23 00:11:38;;;;;;;3.90;2.47;;;22.60;54.10;;;;;;20881284;28;20084;-19
2021/06/23 00:21:39;;;;;;;9.73;3.65;;;22.60;55.40;;;;;;20875439;28;20507;-21
2021/06/23 00:31:39;;;;;;;5.18;2.53;;;22.70;55.50;;;;;;20865500;28;20030;-18
2021/06/23 00:41:40;;;;;;;4.78;2.58;;;22.60;55.40;;;;;;20864177;28;20036;-20
2021/06/23 00:51:41;;;;;;;6.37;3.13;;;22.60;55.40;;;;;;20860568;23;20053;-19
2021/06/23 01:01:43;;;;;;;5.40;2.63;;;22.60;55.40;;;;;;20773529;28;20480;-20
2021/06/23 01:12:22;;;;;;;5.18;2.70;;;22.60;55.60;;;;;;20760174;28;20074;-19
2021/06/23 01:22:24;;;;;;;10.02;3.30;;;22.60;55.60;;;;;;20748514;28;20033;-20
2021/06/23 01:32:24;;;;;;;8.35;2.78;;;22.60;55.50;;;;;;20749874;28;20494;-20
2021/06/23 01:42:25;;;;;;;7.22;2.50;;;22.60;55.50;;;;;;20743021;28;20105;-19
2021/06/23 01:52:27;;;;;;;7.78;2.75;;;22.50;55.40;;;;;;20742143;28;20034;-20
2021/06/23 02:02:28;;;;;;;6.32;3.08;;;22.50;55.50;;;;;;20756349;28;20061;-20
2021/06/23 02:13:17;;;;;;;4.28;3.33;;;22.50;55.40;;;;;;20739083;28;20026;-20
2021/06/23 02:23:18;;;;;;;8.18;2.72;;;22.50;55.50;;;;;;20678169;28;20084;-20
2021/06/23 02:33:20;;;;;;;5.25;2.42;;;22.50;55.40;;;;;;20737822;28;20054;-20
2021/06/23 02:43:21;;;;;;;7.72;3.40;;;22.50;55.30;;;;;;20737726;28;20049;-20
2021/06/23 02:53:22;;;;;;;5.15;2.90;;;22.50;55.40;;;;;;20763300;28;20637;-20
2021/06/23 03:03:23;;;;;;;5.60;2.60;;;22.50;55.30;;;;;;20744497;28;20030;-20
2021/06/23 03:13:23;;;;;;;4.33;2.80;;;22.50;55.20;;;;;;20718158;28;20030;-19
2021/06/23 03:23:24;;;;;;;5.88;2.88;;;22.40;55.20;;;;;;20734932;28;20073;-21
2021/06/23 03:33:24;;;;;;;4.30;2.40;;;22.40;54.90;;;;;;20735693;28;20029;-19
2021/06/23 03:43:27;;;;;;;4.68;2.25;;;22.40;54.70;;;;;;20734292;28;20539;-20
2021/06/23 03:53:28;;;;;;;5.55;2.22;;;22.40;54.60;;;;;;20733673;28;20129;-20
2021/06/23 04:03:28;;;;;;;4.68;2.47;;;22.40;54.70;;;;;;20734298;28;20502;-20
2021/06/23 04:13:29;;;;;;;6.00;2.28;;;22.40;54.90;;;;;;20758960;28;20034;-20
2021/06/23 04:23:29;;;;;;;4.15;2.40;;;22.40;54.70;;;;;;20758919;28;20038;-20
2021/06/23 04:33:30;;;;;;;5.53;2.60;;;22.40;54.70;;;;;;20773348;28;20030;-21
2021/06/23 04:43:31;;;;;;;5.90;2.25;;;22.40;54.80;;;;;;20758936;28;20077;-21
2021/06/23 04:53:31;;;;;;;8.13;2.60;;;22.40;54.70;;;;;;20762924;28;20037;-21
2021/06/23 05:03:32;;;;;;;7.05;2.70;;;22.40;54.70;;;;;;20765170;28;20033;-20
2021/06/23 05:13:32;;;;;;;3.88;2.08;;;22.30;54.40;;;;;;20748065;28;20060;-21
2021/06/23 05:23:33;;;;;;;4.60;2.60;;;22.30;54.40;;;;;;20748278;28;20448;-20
2021/06/23 05:33:34;;;;;;;4.88;2.63;;;22.30;54.50;;;;;;20753553;28;20037;-21
2021/06/23 05:43:34;;;;;;;42.92;5.38;;;22.30;53.80;;;;;;20753038;28;20034;-21
2021/06/23 05:53:35;;;;;;;29.48;5.13;;;22.40;54.70;;;;;;20745067;28;20037;-20
2021/06/23 06:03:36;;;;;;;11.63;3.00;;;22.40;55.10;;;;;;20748053;28;20526;-20
2021/06/23 06:13:36;;;;;;;22.92;4.43;;;22.40;54.90;;;;;;20744164;28;20101;-21
2021/06/23 06:23:37;;;;;;;37.83;9.93;;;22.40;55.20;;;;;;20722810;28;20042;-21
2021/06/23 06:33:38;;;;;;;38.05;9.55;;;22.50;55.50;;;;;;20739046;28;20480;-21
2021/06/23 06:43:38;;;;;;;31.70;8.63;;;22.40;55.40;;;;;;20739938;28;20041;-20
2021/06/23 06:53:39;;;;;;;27.05;7.60;;;22.40;55.30;;;;;;20788472;23;20076;-20
2021/06/23 07:03:39;;;;;;;22.92;7.28;;;22.40;55.50;;;;;;20858799;28;20037;-19
2021/06/23 07:13:40;;;;;;;32.53;7.05;;;22.40;55.50;;;;;;20838186;28;20383;-20
2021/06/23 07:23:40;;;;;;;21.27;7.15;;;22.40;55.50;;;;;;20826751;28;20114;-20
2021/06/23 07:33:50;;;;;;;24.27;6.47;;;22.40;55.70;;;;;;20816224;28;20088;-21
2021/06/23 07:43:51;;;;;;;26.20;5.55;;;22.50;55.80;;;;;;20815029;28;20026;-20
2021/06/23 08:14:26;;;;;;;12.77;4.82;;;22.60;55.70;;;;;;20860384;28;20032;-19
2021/06/23 08:24:27;;;;;;;35.77;5.50;;;22.60;55.60;;;;;;20850365;28;20125;-21
2021/06/23 08:34:29;;;;;;;14.23;3.78;;;22.60;55.60;;;;;;20864712;28;20518;-20
2021/06/23 08:44:29;;;;;;;11.40;4.45;;;22.60;55.40;;;;;;20842575;28;20049;-20
2021/06/23 08:54:30;;;;;;;13.32;4.15;;;22.70;55.40;;;;;;20859042;28;20059;-19
2021/06/23 09:04:30;;;;;;;10.93;3.58;;;22.70;55.30;;;;;;20853919;28;20032;-21
2021/06/23 09:14:34;;;;;;;10.93;4.30;;;22.70;55.30;;;;;;20846412;28;20728;-20
2021/06/23 09:24:39;;;;;;;8.73;3.45;;;22.70;55.30;;;;;;20871595;28;20080;-20
2021/06/23 09:34:46;;;;;;;9.85;3.08;;;22.70;55.20;;;;;;20844213;28;20039;-20
2021/06/23 09:44:46;;;;;;;7.28;2.75;;;22.70;55.20;;;;;;20873171;28;20033;-21
2021/06/23 09:54:50;;;;;;;4.90;2.80;;;22.70;55.20;;;;;;20883717;28;20481;-20
2021/06/23 10:04:52;;;;;;;6.72;3.05;;;22.70;55.10;;;;;;20855002;28;20116;-20
2021/06/23 10:14:53;;;;;;;10.32;3.65;;;22.70;55.20;;;;;;20853715;28;20036;-21
2021/06/23 10:24:55;;;;;;;9.82;3.03;;;22.70;55.20;;;;;;20824677;28;20128;-20
2021/06/23 10:34:56;;;;;;;11.35;3.38;;;22.80;55.20;;;;;;20833214;28;20448;-20
2021/06/23 10:44:57;;;;;;;6.53;2.58;;;22.80;55.90;;;;;;20843001;28;20063;-20
2021/06/23 10:55:08;;;;;;;4.40;1.98;;;22.80;56.00;;;;;;20852007;28;20025;-20
2021/06/23 11:05:14;;;;;;;9.15;3.20;;;22.80;55.60;;;;;;20856562;28;20025;-20
2021/06/23 11:15:34;;;;;;;4.18;2.95;;;22.80;55.40;;;;;;20849694;28;20059;-20
2021/06/23 11:25:36;;;;;;;8.50;2.58;;;22.80;55.40;;;;;;20857982;28;20053;-20
2021/06/23 11:35:36;;;;;;;6.05;2.28;;;22.80;55.50;;;;;;20878430;28;20061;-21
2021/06/23 11:45:37;;;;;;;12.50;3.17;;;22.80;55.50;;;;;;20885986;28;20401;-20
2021/06/23 11:55:39;;;;;;;7.13;2.78;;;22.90;55.50;;;;;;20858121;28;20127;-21
2021/06/23 12:05:40;;;;;;;7.25;3.13;;;22.90;55.60;;;;;;20881152;28;20035;-20
2021/06/23 12:15:41;;;;;;;8.50;3.03;;;22.80;55.90;;;;;;20923502;28;20033;-20
2021/06/23 12:25:46;;;;;;;7.10;2.78;;;22.80;56.00;;;;;;20914298;28;20021;-20
2021/06/23 12:35:46;;;;;;;5.13;2.47;;;22.80;56.10;;;;;;20913396;28;20028;-20
2021/06/23 12:45:51;;;;;;;3.97;2.35;;;22.70;56.20;;;;;;20908384;28;20033;-21
2021/06/23 12:55:52;;;;;;;6.65;2.10;;;22.80;56.30;;;;;;20844056;23;20072;-20
2021/06/23 13:05:52;;;;;;;4.53;2.33;;;22.70;56.40;;;;;;20783362;28;20034;-21
2021/06/23 13:15:55;;;;;;;8.13;3.25;;;22.70;56.50;;;;;;20773591;28;20038;-20
2021/06/23 13:25:56;;;;;;;5.53;3.00;;;22.70;56.50;;;;;;20767176;28;20053;-20
2021/06/23 13:35:57;;;;;;;4.90;2.67;;;22.70;56.50;;;;;;20773790;28;20156;-20
2021/06/23 13:45:57;;;;;;;4.50;2.30;;;22.70;56.50;;;;;;20775864;28;20121;-20
2021/06/23 13:55:58;;;;;;;8.52;2.90;;;22.70;56.60;;;;;;20766372;28;20477;-20
2021/06/23 14:05:58;;;;;;;6.73;3.13;;;22.70;56.50;;;;;;20768545;28;20029;-21
2021/06/23 14:15:59;;;;;;;7.10;3.17;;;22.70;56.50;;;;;;20771585;28;20471;-21
2021/06/23 14:26:00;;;;;;;4.97;3.40;;;22.70;56.50;;;;;;20773213;28;20037;-21
2021/06/23 14:36:01;;;;;;;5.65;3.05;;;22.70;56.50;;;;;;20761478;28;20030;-21
2021/06/23 14:46:02;;;;;;;4.65;3.13;;;22.60;56.50;;;;;;20762052;28;20121;-21
2021/06/23 14:56:02;;;;;;;5.57;3.17;;;22.70;56.60;;;;;;20729035;28;20498;-19
2021/06/23 15:06:08;;;;;;;6.72;2.92;;;22.60;56.50;;;;;;20741350;28;21050;-21
2021/06/23 15:16:08;;;;;;;4.35;3.35;;;22.60;56.50;;;;;;20743427;28;20096;-20
2021/06/23 15:26:09;;;;;;;6.07;3.85;;;22.60;56.40;;;;;;20736703;28;20034;-20
2021/06/23 15:36:10;;;;;;;4.10;2.50;;;22.60;56.50;;;;;;20736774;28;20018;-21
2021/06/23 15:46:12;;;;;;;6.05;3.22;;;22.60;56.60;;;;;;20736801;28;20482;-20
2021/06/23 15:56:12;;;;;;;4.68;3.33;;;22.60;56.60;;;;;;20741287;28;20041;-21
2021/06/23 16:06:13;;;;;;;6.30;2.72;;;22.60;56.60;;;;;;20736711;28;20049;-21
2021/06/23 16:16:16;;;;;;;5.43;3.50;;;22.60;56.80;;;;;;20749800;28;20045;-21
2021/06/23 16:26:16;;;;;;;7.75;3.65;;;22.60;57.00;;;;;;20750942;28;20100;-21
2021/06/23 16:36:17;;;;;;;9.25;3.92;;;22.60;57.10;;;;;;20748933;28;20057;-21
2021/06/23 16:46:18;;;;;;;8.63;3.70;;;22.60;57.10;;;;;;20752295;28;20042;-20
2021/06/23 16:56:18;;;;;;;13.47;4.67;;;22.50;57.40;;;;;;20719688;28;20044;-20
2021/06/23 17:06:21;;;;;;;15.57;4.45;;;22.50;57.70;;;;;;20749691;28;20477;-20
2021/06/23 17:16:21;;;;;;;24.38;6.70;;;22.50;58.00;;;;;;20744763;28;20498;-21
2021/06/23 17:26:22;;;;;;;12.85;5.70;;;22.50;58.10;;;;;;20723561;28;20105;-19
2021/06/23 17:36:23;;;;;;;16.40;6.82;;;22.60;58.20;;;;;;20713845;28;20030;-21
2021/06/23 17:46:24;;;;;;;20.20;6.25;;;22.70;58.30;;;;;;20764357;28;20049;-21
2021/06/23 17:56:24;;;;;;;14.98;5.72;;;22.60;59.00;;;;;;20715008;28;20465;-19
2021/06/23 18:06:25;;;;;;;23.17;6.78;;;22.60;59.60;;;;;;20749746;28;20058;-19
2021/06/23 18:16:25;;;;;;;19.17;6.25;;;22.60;60.40;;;;;;20718797;28;20493;-20
2021/06/23 18:26:26;;;;;;;13.40;6.10;;;22.60;60.80;;;;;;20747616;28;20033;-20
2021/06/23 18:36:26;;;;;;;13.00;5.60;;;22.50;60.60;;;;;;20780689;28;20559;-20
2021/06/23 18:46:27;;;;;;;14.67;6.33;;;22.60;60.60;;;;;;20765743;28;20034;-20
2021/06/23 18:56:28;;;;;;;21.02;6.47;;;22.60;60.70;;;;;;20769250;28;20675;-20
2021/06/23 19:06:28;;;;;;;19.97;6.47;;;22.60;60.60;;;;;;20770540;28;20030;-19
2021/06/23 19:16:29;;;;;;;12.27;5.63;;;22.60;60.60;;;;;;20776263;28;20034;-19
2021/06/23 19:26:29;;;;;;;12.90;5.90;;;22.60;61.60;;;;;;20773563;28;20030;-21
2021/06/23 19:36:30;;;;;;;16.87;5.40;;;22.60;62.30;;;;;;20729147;28;20071;-21
2021/06/23 19:46:30;;;;;;;11.13;5.63;;;22.60;62.50;;;;;;20699804;28;20481;-21
2021/06/23 19:56:31;;;;;;;17.90;6.95;;;22.60;62.80;;;;;;20710902;28;20117;-20
2021/06/23 20:06:32;;;;;;;12.65;6.55;;;22.60;63.30;;;;;;20675145;28;20022;-21
2021/06/23 20:16:32;;;;;;;14.10;4.67;;;22.60;63.40;;;;;;20672234;28;20033;-20
2021/06/23 20:26:33;;;;;;;11.33;6.17;;;22.60;63.50;;;;;;20747030;28;20021;-21
2021/06/23 20:36:34;;;;;;;18.45;5.60;;;22.70;64.10;;;;;;20726867;28;20491;-21
2021/06/23 20:46:35;;;;;;;17.13;5.25;;;22.60;63.70;;;;;;20748479;28;20513;-21
2021/06/23 20:56:37;;;;;;;24.23;6.68;;;22.60;63.80;;;;;;20748517;28;20041;-21
2021/06/23 21:06:40;;;;;;;20.85;6.25;;;22.60;64.00;;;;;;20755528;28;20036;-20
2021/06/23 21:16:40;;;;;;;19.45;5.70;;;22.60;63.90;;;;;;20750118;28;20041;-21
2021/06/23 21:26:41;;;;;;;20.23;7.28;;;22.60;64.30;;;;;;20745261;28;20042;-20
2021/06/23 21:36:42;;;;;;;10.18;5.13;;;22.60;64.50;;;;;;20721824;28;20042;-19
2021/06/23 21:46:53;;;;;;;34.13;6.38;;;22.60;64.40;;;;;;20658537;28;20030;-20
2021/06/23 21:56:53;;;;;;;13.00;4.80;;;22.60;63.60;;;;;;20717198;28;20058;-20
2021/06/23 22:06:54;;;;;;;12.63;4.47;;;22.60;63.10;;;;;;20712132;28;20510;-20
2021/06/23 22:16:54;;;;;;;22.92;5.07;;;22.60;62.70;;;;;;20690303;28;20038;-21
2021/06/23 22:26:55;;;;;;;12.55;5.20;;;22.60;62.80;;;;;;20740576;28;20075;-21
2021/06/23 22:36:58;;;;;;;9.88;4.13;;;22.60;62.60;;;;;;20739669;28;20116;-21
2021/06/23 22:47:20;;;;;;;9.95;4.05;;;22.50;62.70;;;;;;20740161;28;20025;-22
2021/06/23 22:57:21;;;;;;;9.73;5.00;;;22.50;62.90;;;;;;20766958;28;20037;-21
2021/06/23 23:07:22;;;;;;;16.50;4.55;;;22.50;63.30;;;;;;20753274;28;20030;-20
2021/06/23 23:17:24;;;;;;;16.45;5.20;;;22.50;63.20;;;;;;20747953;28;20041;-19
2021/06/23 23:27:25;;;;;;;10.10;4.05;;;22.40;63.40;;;;;;20767359;28;20022;-22
2021/06/23 23:37:26;;;;;;;10.02;3.60;;;22.40;63.40;;;;;;20757571;28;20021;-19
2021/06/23 23:47:26;;;;;;;12.32;3.63;;;22.40;63.40;;;;;;20831766;23;20049;-20
2021/06/23 23:57:27;;;;;;;9.43;4.10;;;22.40;63.40;;;;;;20904585;28;20701;-20
